sensor_id;sensor_type;location;lat;lon;timestamp;temperature;humidity
5344;DHT22;2694;48.954;8.928;2024-02-26T00:01:45;5.90;99.90
5344;DHT22;2694;48.954;8.928;2024-02-26T00:04:12;5.90;99.90
5344;DHT22;2694;48.954;8.928;2024-02-26T00:06:38;5.90;99.90
5344;DHT22;2694;48.954;8.928;2024-02-26T00:09:06;5.80;99.90
5344;DHT22;2694;48.954;8.928;2024-02-26T00:11:34;5.80;99.90
5344;DHT22;2694;48.954;8.928;2024-02-26T00:14:01;5.90;99.90
5344;DHT22;2694;48.954;8.928;2024-02-26T00:16:30;5.90;99.90
5344;DHT22;2694;48.954;8.928;2024-02-26T00:18:56;6.00;99.90
5344;DHT22;2694;48.954;8.928;2024-02-26T00:21:23;6.00;99.90
5344;DHT22;2694;48.954;8.928;2024-02-26T00:23:50;5.90;99.90
5344;DHT22;2694;48.954;8.928;2024-02-26T00:26:17;5.90;99.90
5344;DHT22;2694;48.954;8.928;2024-02-26T00:28:43;5.90;99.90
5344;DHT22;2694;48.954;8.928;2024-02-26T00:31:10;5.90;99.90
5344;DHT22;2694;48.954;8.928;2024-02-26T00:33:38;6.10;99.90
5344;DHT22;2694;48.954;8.928;2024-02-26T00:36:05;6.20;99.90
5344;DHT22;2694;48.954;8.928;2024-02-26T00:38:32;6.10;99.90
5344;DHT22;2694;48.954;8.928;2024-02-26T00:40:59;6.10;99.90
5344;DHT22;2694;48.954;8.928;2024-02-26T00:43:26;6.10;99.90
5344;DHT22;2694;48.954;8.928;2024-02-26T00:45:53;6.10;99.90
5344;DHT22;2694;48.954;8.928;2024-02-26T00:48:19;6.00;99.90
5344;DHT22;2694;48.954;8.928;2024-02-26T00:50:48;5.90;99.90
5344;DHT22;2694;48.954;8.928;2024-02-26T00:53:14;5.90;99.90
5344;DHT22;2694;48.954;8.928;2024-02-26T00:55:41;5.90;99.90
5344;DHT22;2694;48.954;8.928;2024-02-26T00:58:08;5.80;99.90
5344;DHT22;2694;48.954;8.928;2024-02-26T01:00:35;5.90;99.90
5344;DHT22;2694;48.954;8.928;2024-02-26T01:03:03;6.00;99.90
5344;DHT22;2694;48.954;8.928;2024-02-26T01:05:30;6.00;99.90
5344;DHT22;2694;48.954;8.928;2024-02-26T01:07:58;5.90;99.90
5344;DHT22;2694;48.954;8.928;2024-02-26T01:10:26;5.90;99.90
5344;DHT22;2694;48.954;8.928;2024-02-26T01:12:53;6.00;99.90
5344;DHT22;2694;48.954;8.928;2024-02-26T01:15:19;5.90;99.90
5344;DHT22;2694;48.954;8.928;2024-02-26T01:17:49;5.70;99.90
5344;DHT22;2694;48.954;8.928;2024-02-26T01:20:15;5.60;99.90
5344;DHT22;2694;48.954;8.928;2024-02-26T01:22:42;5.50;99.90
5344;DHT22;2694;48.954;8.928;2024-02-26T01:25:11;5.60;99.90
5344;DHT22;2694;48.954;8.928;2024-02-26T01:27:38;5.60;99.90
5344;DHT22;2694;48.954;8.928;2024-02-26T01:30:07;5.40;99.90
5344;DHT22;2694;48.954;8.928;2024-02-26T01:32:34;5.30;99.90
5344;DHT22;2694;48.954;8.928;2024-02-26T01:35:01;5.30;99.90
5344;DHT22;2694;48.954;8.928;2024-02-26T01:37:28;5.30;99.90
5344;DHT22;2694;48.954;8.928;2024-02-26T01:39:56;5.40;99.90
5344;DHT22;2694;48.954;8.928;2024-02-26T01:42:24;5.40;99.90
5344;DHT22;2694;48.954;8.928;2024-02-26T01:44:50;5.50;99.90
5344;DHT22;2694;48.954;8.928;2024-02-26T01:47:17;5.50;99.90
5344;DHT22;2694;48.954;8.928;2024-02-26T01:49:44;5.50;99.90
5344;DHT22;2694;48.954;8.928;2024-02-26T01:52:11;5.50;99.90
5344;DHT22;2694;48.954;8.928;2024-02-26T01:54:39;5.50;99.90
5344;DHT22;2694;48.954;8.928;2024-02-26T01:57:08;5.60;99.90
5344;DHT22;2694;48.954;8.928;2024-02-26T01:59:36;5.70;99.90
5344;DHT22;2694;48.954;8.928;2024-02-26T02:02:06;5.70;99.90
5344;DHT22;2694;48.954;8.928;2024-02-26T02:04:34;5.80;99.90
5344;DHT22;2694;48.954;8.928;2024-02-26T02:07:01;5.80;99.90
5344;DHT22;2694;48.954;8.928;2024-02-26T02:09:27;5.80;99.90
5344;DHT22;2694;48.954;8.928;2024-02-26T02:11:55;5.80;99.90
5344;DHT22;2694;48.954;8.928;2024-02-26T02:14:22;5.90;99.90
5344;DHT22;2694;48.954;8.928;2024-02-26T02:16:50;5.80;99.90
5344;DHT22;2694;48.954;8.928;2024-02-26T02:19:17;5.80;99.90
5344;DHT22;2694;48.954;8.928;2024-02-26T02:21:45;5.80;99.90
5344;DHT22;2694;48.954;8.928;2024-02-26T02:24:12;5.70;99.90
5344;DHT22;2694;48.954;8.928;2024-02-26T02:26:38;5.70;99.90
5344;DHT22;2694;48.954;8.928;2024-02-26T02:29:06;5.70;99.90
5344;DHT22;2694;48.954;8.928;2024-02-26T02:31:34;5.60;99.90
5344;DHT22;2694;48.954;8.928;2024-02-26T02:34:01;5.60;99.90
5344;DHT22;2694;48.954;8.928;2024-02-26T02:36:28;5.60;99.90
5344;DHT22;2694;48.954;8.928;2024-02-26T02:38:57;5.60;99.90
5344;DHT22;2694;48.954;8.928;2024-02-26T02:41:24;5.60;99.90
5344;DHT22;2694;48.954;8.928;2024-02-26T02:43:52;5.60;99.90
5344;DHT22;2694;48.954;8.928;2024-02-26T02:46:19;5.70;99.90
5344;DHT22;2694;48.954;8.928;2024-02-26T02:48:45;5.70;99.90
5344;DHT22;2694;48.954;8.928;2024-02-26T02:51:12;5.60;99.90
5344;DHT22;2694;48.954;8.928;2024-02-26T02:53:39;5.70;99.90
5344;DHT22;2694;48.954;8.928;2024-02-26T02:56:07;5.50;99.90
5344;DHT22;2694;48.954;8.928;2024-02-26T02:58:34;5.50;99.90
5344;DHT22;2694;48.954;8.928;2024-02-26T03:01:00;5.50;99.90
5344;DHT22;2694;48.954;8.928;2024-02-26T03:03:27;5.60;99.90
5344;DHT22;2694;48.954;8.928;2024-02-26T03:05:54;5.50;99.90
5344;DHT22;2694;48.954;8.928;2024-02-26T03:08:21;5.50;99.90
5344;DHT22;2694;48.954;8.928;2024-02-26T03:10:49;5.50;99.90
5344;DHT22;2694;48.954;8.928;2024-02-26T03:13:17;5.50;99.90
5344;DHT22;2694;48.954;8.928;2024-02-26T03:15:44;5.60;99.90
5344;DHT22;2694;48.954;8.928;2024-02-26T03:18:10;5.60;99.90
5344;DHT22;2694;48.954;8.928;2024-02-26T03:20:37;5.60;99.90
5344;DHT22;2694;48.954;8.928;2024-02-26T03:23:04;5.60;99.90
5344;DHT22;2694;48.954;8.928;2024-02-26T03:25:31;5.70;99.90
5344;DHT22;2694;48.954;8.928;2024-02-26T03:27:57;5.60;99.90
5344;DHT22;2694;48.954;8.928;2024-02-26T03:30:25;5.50;99.90
5344;DHT22;2694;48.954;8.928;2024-02-26T03:32:52;5.50;99.90
5344;DHT22;2694;48.954;8.928;2024-02-26T03:35:19;5.40;99.90
5344;DHT22;2694;48.954;8.928;2024-02-26T03:37:46;5.40;99.90
5344;DHT22;2694;48.954;8.928;2024-02-26T03:40:13;5.50;99.90
5344;DHT22;2694;48.954;8.928;2024-02-26T03:42:40;5.50;99.90
5344;DHT22;2694;48.954;8.928;2024-02-26T03:45:07;5.50;99.90
5344;DHT22;2694;48.954;8.928;2024-02-26T03:47:37;5.60;99.90
5344;DHT22;2694;48.954;8.928;2024-02-26T03:50:04;5.70;99.90
5344;DHT22;2694;48.954;8.928;2024-02-26T03:52:31;5.70;99.90
5344;DHT22;2694;48.954;8.928;2024-02-26T03:54:58;5.70;99.90
5344;DHT22;2694;48.954;8.928;2024-02-26T03:57:25;5.70;99.90
5344;DHT22;2694;48.954;8.928;2024-02-26T03:59:52;5.70;99.90
5344;DHT22;2694;48.954;8.928;2024-02-26T04:02:19;5.80;99.90
5344;DHT22;2694;48.954;8.928;2024-02-26T04:04:47;5.80;99.90
5344;DHT22;2694;48.954;8.928;2024-02-26T04:07:14;5.90;99.90
5344;DHT22;2694;48.954;8.928;2024-02-26T04:09:40;5.90;99.90
5344;DHT22;2694;48.954;8.928;2024-02-26T04:12:08;5.80;99.90
5344;DHT22;2694;48.954;8.928;2024-02-26T04:14:35;5.90;99.90
5344;DHT22;2694;48.954;8.928;2024-02-26T04:17:03;5.80;99.90
5344;DHT22;2694;48.954;8.928;2024-02-26T04:19:29;5.80;99.90
5344;DHT22;2694;48.954;8.928;2024-02-26T04:21:57;5.80;99.90
5344;DHT22;2694;48.954;8.928;2024-02-26T04:24:24;5.90;99.90
5344;DHT22;2694;48.954;8.928;2024-02-26T04:26:51;5.90;99.90
5344;DHT22;2694;48.954;8.928;2024-02-26T04:29:18;5.90;99.90
5344;DHT22;2694;48.954;8.928;2024-02-26T04:31:44;5.80;99.90
5344;DHT22;2694;48.954;8.928;2024-02-26T04:34:12;5.80;99.90
5344;DHT22;2694;48.954;8.928;2024-02-26T04:36:38;5.70;99.90
5344;DHT22;2694;48.954;8.928;2024-02-26T04:39:07;5.70;99.90
5344;DHT22;2694;48.954;8.928;2024-02-26T04:41:33;5.70;99.90
5344;DHT22;2694;48.954;8.928;2024-02-26T04:44:00;5.80;99.90
5344;DHT22;2694;48.954;8.928;2024-02-26T04:46:27;5.80;99.90
5344;DHT22;2694;48.954;8.928;2024-02-26T04:48:53;5.80;99.90
5344;DHT22;2694;48.954;8.928;2024-02-26T04:51:20;5.80;99.90
5344;DHT22;2694;48.954;8.928;2024-02-26T04:53:47;5.80;99.90
5344;DHT22;2694;48.954;8.928;2024-02-26T04:56:15;5.80;99.90
5344;DHT22;2694;48.954;8.928;2024-02-26T04:58:42;5.80;99.90
5344;DHT22;2694;48.954;8.928;2024-02-26T05:01:09;5.80;99.90
5344;DHT22;2694;48.954;8.928;2024-02-26T05:03:36;5.90;99.90
5344;DHT22;2694;48.954;8.928;2024-02-26T05:06:03;5.90;99.90
5344;DHT22;2694;48.954;8.928;2024-02-26T05:08:30;5.80;99.90
5344;DHT22;2694;48.954;8.928;2024-02-26T05:10:59;5.80;99.90
5344;DHT22;2694;48.954;8.928;2024-02-26T05:13:27;5.80;99.90
5344;DHT22;2694;48.954;8.928;2024-02-26T05:15:54;5.80;99.90
5344;DHT22;2694;48.954;8.928;2024-02-26T05:18:22;5.90;99.90
5344;DHT22;2694;48.954;8.928;2024-02-26T05:20:48;5.80;99.90
5344;DHT22;2694;48.954;8.928;2024-02-26T05:23:15;5.80;99.90
5344;DHT22;2694;48.954;8.928;2024-02-26T05:25:42;5.80;99.90
5344;DHT22;2694;48.954;8.928;2024-02-26T05:28:11;5.80;99.90
5344;DHT22;2694;48.954;8.928;2024-02-26T05:30:39;5.80;99.90
5344;DHT22;2694;48.954;8.928;2024-02-26T05:33:06;5.80;99.90
5344;DHT22;2694;48.954;8.928;2024-02-26T05:35:32;5.90;99.90
5344;DHT22;2694;48.954;8.928;2024-02-26T05:37:59;5.80;99.90
5344;DHT22;2694;48.954;8.928;2024-02-26T05:40:26;5.90;99.90
5344;DHT22;2694;48.954;8.928;2024-02-26T05:42:52;5.90;99.90
5344;DHT22;2694;48.954;8.928;2024-02-26T05:45:18;5.90;99.90
5344;DHT22;2694;48.954;8.928;2024-02-26T05:47:46;5.90;99.90
5344;DHT22;2694;48.954;8.928;2024-02-26T05:50:15;6.00;99.90
5344;DHT22;2694;48.954;8.928;2024-02-26T05:52:44;6.00;99.90
5344;DHT22;2694;48.954;8.928;2024-02-26T05:55:11;6.00;99.90
5344;DHT22;2694;48.954;8.928;2024-02-26T05:57:38;5.90;99.90
5344;DHT22;2694;48.954;8.928;2024-02-26T06:00:06;5.90;99.90
5344;DHT22;2694;48.954;8.928;2024-02-26T06:02:33;5.90;99.90
5344;DHT22;2694;48.954;8.928;2024-02-26T06:05:01;5.80;99.90
5344;DHT22;2694;48.954;8.928;2024-02-26T06:07:28;5.80;99.90
5344;DHT22;2694;48.954;8.928;2024-02-26T06:09:55;5.80;99.90
5344;DHT22;2694;48.954;8.928;2024-02-26T06:12:22;5.80;99.90
5344;DHT22;2694;48.954;8.928;2024-02-26T06:14:49;5.90;99.90
5344;DHT22;2694;48.954;8.928;2024-02-26T06:17:16;5.90;99.90
5344;DHT22;2694;48.954;8.928;2024-02-26T06:19:42;5.80;99.90
5344;DHT22;2694;48.954;8.928;2024-02-26T06:22:10;5.90;99.90
5344;DHT22;2694;48.954;8.928;2024-02-26T06:24:37;5.90;99.90
5344;DHT22;2694;48.954;8.928;2024-02-26T06:27:04;5.90;99.90
5344;DHT22;2694;48.954;8.928;2024-02-26T06:29:31;5.80;99.90
5344;DHT22;2694;48.954;8.928;2024-02-26T06:31:58;5.80;99.90
5344;DHT22;2694;48.954;8.928;2024-02-26T06:34:24;5.80;99.90
5344;DHT22;2694;48.954;8.928;2024-02-26T06:36:51;5.80;99.90
5344;DHT22;2694;48.954;8.928;2024-02-26T06:39:19;5.80;99.90
5344;DHT22;2694;48.954;8.928;2024-02-26T06:41:46;5.90;99.90
5344;DHT22;2694;48.954;8.928;2024-02-26T06:44:13;5.80;99.90
5344;DHT22;2694;48.954;8.928;2024-02-26T06:46:40;5.80;99.90
5344;DHT22;2694;48.954;8.928;2024-02-26T06:49:07;5.90;99.90
5344;DHT22;2694;48.954;8.928;2024-02-26T06:51:33;5.80;99.90
5344;DHT22;2694;48.954;8.928;2024-02-26T06:54:00;5.80;99.90
5344;DHT22;2694;48.954;8.928;2024-02-26T06:56:28;5.80;99.90
5344;DHT22;2694;48.954;8.928;2024-02-26T06:58:55;5.90;99.90
5344;DHT22;2694;48.954;8.928;2024-02-26T07:01:22;5.90;99.90
5344;DHT22;2694;48.954;8.928;2024-02-26T07:03:48;6.20;99.90
5344;DHT22;2694;48.954;8.928;2024-02-26T07:06:15;6.20;99.90
5344;DHT22;2694;48.954;8.928;2024-02-26T07:08:42;6.30;99.90
5344;DHT22;2694;48.954;8.928;2024-02-26T07:11:09;6.30;99.90
5344;DHT22;2694;48.954;8.928;2024-02-26T07:13:38;6.40;99.90
5344;DHT22;2694;48.954;8.928;2024-02-26T07:16:05;6.40;99.90
5344;DHT22;2694;48.954;8.928;2024-02-26T07:18:32;6.40;99.90
5344;DHT22;2694;48.954;8.928;2024-02-26T07:21:01;6.50;99.90
5344;DHT22;2694;48.954;8.928;2024-02-26T07:23:28;6.50;99.90
5344;DHT22;2694;48.954;8.928;2024-02-26T07:25:55;6.50;99.90
5344;DHT22;2694;48.954;8.928;2024-02-26T07:28:21;6.50;99.90
5344;DHT22;2694;48.954;8.928;2024-02-26T07:30:49;6.60;99.90
5344;DHT22;2694;48.954;8.928;2024-02-26T07:33:16;6.60;99.90
5344;DHT22;2694;48.954;8.928;2024-02-26T07:35:43;6.70;99.90
5344;DHT22;2694;48.954;8.928;2024-02-26T07:38:10;6.60;99.90
5344;DHT22;2694;48.954;8.928;2024-02-26T07:40:38;6.60;99.90
5344;DHT22;2694;48.954;8.928;2024-02-26T07:43:05;6.50;99.90
5344;DHT22;2694;48.954;8.928;2024-02-26T07:45:31;6.50;99.90
5344;DHT22;2694;48.954;8.928;2024-02-26T07:48:00;6.50;99.90
5344;DHT22;2694;48.954;8.928;2024-02-26T07:50:26;6.50;99.90
5344;DHT22;2694;48.954;8.928;2024-02-26T07:52:53;6.50;99.90
5344;DHT22;2694;48.954;8.928;2024-02-26T07:55:20;6.40;99.90
5344;DHT22;2694;48.954;8.928;2024-02-26T07:57:47;6.60;99.90
5344;DHT22;2694;48.954;8.928;2024-02-26T08:00:15;6.40;99.90
5344;DHT22;2694;48.954;8.928;2024-02-26T08:02:42;6.40;99.90
5344;DHT22;2694;48.954;8.928;2024-02-26T08:05:10;6.40;99.90
5344;DHT22;2694;48.954;8.928;2024-02-26T08:07:37;6.50;99.90
5344;DHT22;2694;48.954;8.928;2024-02-26T08:10:04;6.50;99.90
5344;DHT22;2694;48.954;8.928;2024-02-26T08:12:31;6.60;99.90
5344;DHT22;2694;48.954;8.928;2024-02-26T08:14:58;6.60;99.90
5344;DHT22;2694;48.954;8.928;2024-02-26T08:17:25;6.60;99.90
5344;DHT22;2694;48.954;8.928;2024-02-26T08:19:52;6.70;99.90
5344;DHT22;2694;48.954;8.928;2024-02-26T08:22:20;6.70;99.90
5344;DHT22;2694;48.954;8.928;2024-02-26T08:24:47;6.70;99.90
5344;DHT22;2694;48.954;8.928;2024-02-26T08:27:17;6.70;99.90
5344;DHT22;2694;48.954;8.928;2024-02-26T08:29:44;6.70;99.90
5344;DHT22;2694;48.954;8.928;2024-02-26T08:32:10;6.60;99.90
5344;DHT22;2694;48.954;8.928;2024-02-26T08:34:37;6.60;99.90
5344;DHT22;2694;48.954;8.928;2024-02-26T08:37:04;6.60;99.90
5344;DHT22;2694;48.954;8.928;2024-02-26T08:39:33;6.50;99.90
5344;DHT22;2694;48.954;8.928;2024-02-26T08:42:00;6.40;99.90
5344;DHT22;2694;48.954;8.928;2024-02-26T08:44:27;6.50;99.90
5344;DHT22;2694;48.954;8.928;2024-02-26T08:46:53;6.50;99.90
5344;DHT22;2694;48.954;8.928;2024-02-26T08:49:20;6.50;99.90
5344;DHT22;2694;48.954;8.928;2024-02-26T08:51:48;6.50;99.90
5344;DHT22;2694;48.954;8.928;2024-02-26T08:54:15;6.60;99.90
5344;DHT22;2694;48.954;8.928;2024-02-26T08:56:43;6.60;99.90
5344;DHT22;2694;48.954;8.928;2024-02-26T08:59:10;6.60;99.90
5344;DHT22;2694;48.954;8.928;2024-02-26T09:01:37;6.70;99.90
5344;DHT22;2694;48.954;8.928;2024-02-26T09:04:03;6.80;99.90
5344;DHT22;2694;48.954;8.928;2024-02-26T09:06:30;6.80;99.90
5344;DHT22;2694;48.954;8.928;2024-02-26T09:08:57;6.90;99.90
5344;DHT22;2694;48.954;8.928;2024-02-26T09:11:24;7.20;99.90
5344;DHT22;2694;48.954;8.928;2024-02-26T09:13:54;7.40;99.90
5344;DHT22;2694;48.954;8.928;2024-02-26T09:16:21;7.40;99.90
5344;DHT22;2694;48.954;8.928;2024-02-26T09:18:47;7.50;99.90
5344;DHT22;2694;48.954;8.928;2024-02-26T09:21:14;7.50;99.90
5344;DHT22;2694;48.954;8.928;2024-02-26T09:23:44;7.50;99.90
5344;DHT22;2694;48.954;8.928;2024-02-26T09:26:10;7.50;99.90
5344;DHT22;2694;48.954;8.928;2024-02-26T09:28:37;7.60;99.90
5344;DHT22;2694;48.954;8.928;2024-02-26T09:31:05;7.70;99.90
5344;DHT22;2694;48.954;8.928;2024-02-26T09:33:32;7.80;99.90
5344;DHT22;2694;48.954;8.928;2024-02-26T09:35:59;7.90;99.90
5344;DHT22;2694;48.954;8.928;2024-02-26T09:38:27;8.00;99.90
5344;DHT22;2694;48.954;8.928;2024-02-26T09:40:55;8.00;99.90
5344;DHT22;2694;48.954;8.928;2024-02-26T09:43:23;8.00;99.90
5344;DHT22;2694;48.954;8.928;2024-02-26T09:45:50;8.00;99.90
5344;DHT22;2694;48.954;8.928;2024-02-26T09:48:18;8.20;99.90
5344;DHT22;2694;48.954;8.928;2024-02-26T09:50:46;8.30;99.90
5344;DHT22;2694;48.954;8.928;2024-02-26T09:53:13;8.20;99.90
5344;DHT22;2694;48.954;8.928;2024-02-26T09:55:40;8.20;99.90
5344;DHT22;2694;48.954;8.928;2024-02-26T09:58:07;8.20;99.90
5344;DHT22;2694;48.954;8.928;2024-02-26T10:00:37;8.20;99.90
5344;DHT22;2694;48.954;8.928;2024-02-26T10:03:05;8.30;99.90
5344;DHT22;2694;48.954;8.928;2024-02-26T10:05:34;8.40;99.90
5344;DHT22;2694;48.954;8.928;2024-02-26T10:08:01;8.40;99.90
5344;DHT22;2694;48.954;8.928;2024-02-26T10:10:29;8.50;99.90
5344;DHT22;2694;48.954;8.928;2024-02-26T10:12:57;8.50;99.90
5344;DHT22;2694;48.954;8.928;2024-02-26T10:15:25;8.60;99.90
5344;DHT22;2694;48.954;8.928;2024-02-26T10:17:52;8.70;99.90
5344;DHT22;2694;48.954;8.928;2024-02-26T10:20:20;8.60;99.90
5344;DHT22;2694;48.954;8.928;2024-02-26T10:22:50;8.70;99.90
5344;DHT22;2694;48.954;8.928;2024-02-26T10:25:18;8.80;99.90
5344;DHT22;2694;48.954;8.928;2024-02-26T10:27:45;8.80;99.90
5344;DHT22;2694;48.954;8.928;2024-02-26T10:30:17;9.00;99.90
5344;DHT22;2694;48.954;8.928;2024-02-26T10:32:45;9.00;99.90
5344;DHT22;2694;48.954;8.928;2024-02-26T10:35:13;8.90;99.90
5344;DHT22;2694;48.954;8.928;2024-02-26T10:37:40;8.90;99.90
5344;DHT22;2694;48.954;8.928;2024-02-26T10:40:10;8.90;99.90
5344;DHT22;2694;48.954;8.928;2024-02-26T10:42:37;9.00;99.90
5344;DHT22;2694;48.954;8.928;2024-02-26T10:45:05;9.30;99.90
5344;DHT22;2694;48.954;8.928;2024-02-26T10:47:32;9.50;99.90
5344;DHT22;2694;48.954;8.928;2024-02-26T10:50:00;9.70;99.90
5344;DHT22;2694;48.954;8.928;2024-02-26T10:52:31;9.90;99.90
5344;DHT22;2694;48.954;8.928;2024-02-26T10:55:00;10.10;99.90
5344;DHT22;2694;48.954;8.928;2024-02-26T10:57:34;10.20;99.90
5344;DHT22;2694;48.954;8.928;2024-02-26T11:00:04;10.20;99.90
5344;DHT22;2694;48.954;8.928;2024-02-26T11:02:32;10.20;99.90
5344;DHT22;2694;48.954;8.928;2024-02-26T11:05:01;10.10;99.90
5344;DHT22;2694;48.954;8.928;2024-02-26T11:07:30;10.00;99.90
5344;DHT22;2694;48.954;8.928;2024-02-26T11:09:57;10.00;99.90
5344;DHT22;2694;48.954;8.928;2024-02-26T11:12:25;10.10;99.90
5344;DHT22;2694;48.954;8.928;2024-02-26T11:14:55;10.20;99.90
5344;DHT22;2694;48.954;8.928;2024-02-26T11:17:26;10.70;99.90
5344;DHT22;2694;48.954;8.928;2024-02-26T11:19:55;10.90;99.90
5344;DHT22;2694;48.954;8.928;2024-02-26T11:22:23;11.20;99.90
5344;DHT22;2694;48.954;8.928;2024-02-26T11:24:52;11.40;99.90
5344;DHT22;2694;48.954;8.928;2024-02-26T11:27:23;11.60;99.90
5344;DHT22;2694;48.954;8.928;2024-02-26T11:29:52;11.80;99.90
5344;DHT22;2694;48.954;8.928;2024-02-26T11:32:21;11.90;99.90
5344;DHT22;2694;48.954;8.928;2024-02-26T11:34:47;11.70;99.90
5344;DHT22;2694;48.954;8.928;2024-02-26T11:37:16;11.50;99.90
5344;DHT22;2694;48.954;8.928;2024-02-26T11:39:45;11.20;99.90
5344;DHT22;2694;48.954;8.928;2024-02-26T11:42:14;11.20;99.90
5344;DHT22;2694;48.954;8.928;2024-02-26T11:44:41;11.30;99.90
5344;DHT22;2694;48.954;8.928;2024-02-26T11:47:12;11.50;99.90
5344;DHT22;2694;48.954;8.928;2024-02-26T11:49:40;11.80;99.90
5344;DHT22;2694;48.954;8.928;2024-02-26T11:52:08;12.10;99.90
5344;DHT22;2694;48.954;8.928;2024-02-26T11:54:45;12.00;99.90
5344;DHT22;2694;48.954;8.928;2024-02-26T11:57:25;12.00;99.90
5344;DHT22;2694;48.954;8.928;2024-02-26T11:59:53;12.00;99.90
5344;DHT22;2694;48.954;8.928;2024-02-26T12:02:40;11.80;99.90
5344;DHT22;2694;48.954;8.928;2024-02-26T12:05:11;11.70;99.90
5344;DHT22;2694;48.954;8.928;2024-02-26T12:07:40;11.70;99.90
5344;DHT22;2694;48.954;8.928;2024-02-26T12:10:22;11.70;99.90
5344;DHT22;2694;48.954;8.928;2024-02-26T12:12:53;11.60;99.90
5344;DHT22;2694;48.954;8.928;2024-02-26T12:15:23;11.60;99.90
5344;DHT22;2694;48.954;8.928;2024-02-26T12:17:52;11.60;99.90
5344;DHT22;2694;48.954;8.928;2024-02-26T12:20:20;11.60;99.90
5344;DHT22;2694;48.954;8.928;2024-02-26T12:22:47;11.60;99.90
5344;DHT22;2694;48.954;8.928;2024-02-26T12:25:14;11.60;99.90
5344;DHT22;2694;48.954;8.928;2024-02-26T12:27:41;11.60;99.90
5344;DHT22;2694;48.954;8.928;2024-02-26T12:30:09;11.60;99.90
5344;DHT22;2694;48.954;8.928;2024-02-26T12:32:36;11.80;99.90
5344;DHT22;2694;48.954;8.928;2024-02-26T12:35:04;12.10;99.90
5344;DHT22;2694;48.954;8.928;2024-02-26T12:37:33;12.30;99.90
5344;DHT22;2694;48.954;8.928;2024-02-26T12:40:03;12.50;99.90
5344;DHT22;2694;48.954;8.928;2024-02-26T12:42:31;12.70;99.90
5344;DHT22;2694;48.954;8.928;2024-02-26T12:45:05;12.80;99.90
5344;DHT22;2694;48.954;8.928;2024-02-26T12:47:35;13.00;99.90
5344;DHT22;2694;48.954;8.928;2024-02-26T12:50:02;13.20;99.90
5344;DHT22;2694;48.954;8.928;2024-02-26T12:52:32;13.20;99.90
5344;DHT22;2694;48.954;8.928;2024-02-26T12:55:00;13.10;99.90
5344;DHT22;2694;48.954;8.928;2024-02-26T12:57:28;13.10;99.90
5344;DHT22;2694;48.954;8.928;2024-02-26T12:59:55;13.20;99.90
5344;DHT22;2694;48.954;8.928;2024-02-26T13:02:23;13.10;99.90
5344;DHT22;2694;48.954;8.928;2024-02-26T13:04:50;13.00;99.90
5344;DHT22;2694;48.954;8.928;2024-02-26T13:07:17;13.00;99.90
5344;DHT22;2694;48.954;8.928;2024-02-26T13:09:45;12.90;99.90
5344;DHT22;2694;48.954;8.928;2024-02-26T13:12:12;12.70;99.90
5344;DHT22;2694;48.954;8.928;2024-02-26T13:14:39;12.70;99.90
5344;DHT22;2694;48.954;8.928;2024-02-26T13:17:06;12.80;99.90
5344;DHT22;2694;48.954;8.928;2024-02-26T13:19:33;12.70;99.90
5344;DHT22;2694;48.954;8.928;2024-02-26T13:22:04;12.80;99.90
5344;DHT22;2694;48.954;8.928;2024-02-26T13:24:31;12.80;99.90
5344;DHT22;2694;48.954;8.928;2024-02-26T13:27:00;12.80;99.90
5344;DHT22;2694;48.954;8.928;2024-02-26T13:29:28;12.90;99.90
5344;DHT22;2694;48.954;8.928;2024-02-26T13:31:55;13.00;99.90
5344;DHT22;2694;48.954;8.928;2024-02-26T13:34:23;13.10;99.90
5344;DHT22;2694;48.954;8.928;2024-02-26T13:36:51;13.00;99.90
5344;DHT22;2694;48.954;8.928;2024-02-26T13:39:25;12.90;99.90
5344;DHT22;2694;48.954;8.928;2024-02-26T13:41:52;13.00;99.90
5344;DHT22;2694;48.954;8.928;2024-02-26T13:44:21;12.90;99.90
5344;DHT22;2694;48.954;8.928;2024-02-26T13:46:48;12.90;99.90
5344;DHT22;2694;48.954;8.928;2024-02-26T13:49:15;12.80;99.90
5344;DHT22;2694;48.954;8.928;2024-02-26T13:51:42;12.80;99.90
5344;DHT22;2694;48.954;8.928;2024-02-26T13:54:08;12.90;99.90
5344;DHT22;2694;48.954;8.928;2024-02-26T13:56:36;12.90;99.90
5344;DHT22;2694;48.954;8.928;2024-02-26T13:59:04;13.00;99.90
5344;DHT22;2694;48.954;8.928;2024-02-26T14:01:32;13.20;99.90
5344;DHT22;2694;48.954;8.928;2024-02-26T14:03:59;13.20;99.90
5344;DHT22;2694;48.954;8.928;2024-02-26T14:06:27;13.20;99.90
5344;DHT22;2694;48.954;8.928;2024-02-26T14:08:54;13.30;99.90
5344;DHT22;2694;48.954;8.928;2024-02-26T14:11:21;13.20;99.90
5344;DHT22;2694;48.954;8.928;2024-02-26T14:13:47;13.40;99.90
5344;DHT22;2694;48.954;8.928;2024-02-26T14:16:14;13.40;99.90
5344;DHT22;2694;48.954;8.928;2024-02-26T14:18:43;13.50;99.90
5344;DHT22;2694;48.954;8.928;2024-02-26T14:21:10;13.50;99.90
5344;DHT22;2694;48.954;8.928;2024-02-26T14:23:37;13.50;99.90
5344;DHT22;2694;48.954;8.928;2024-02-26T14:26:04;13.50;99.90
5344;DHT22;2694;48.954;8.928;2024-02-26T14:28:31;13.40;99.90
5344;DHT22;2694;48.954;8.928;2024-02-26T14:30:59;13.30;99.90
5344;DHT22;2694;48.954;8.928;2024-02-26T14:33:26;13.30;99.90
5344;DHT22;2694;48.954;8.928;2024-02-26T14:35:54;13.20;99.90
5344;DHT22;2694;48.954;8.928;2024-02-26T14:38:21;13.20;99.90
5344;DHT22;2694;48.954;8.928;2024-02-26T14:40:49;13.20;99.90
5344;DHT22;2694;48.954;8.928;2024-02-26T14:43:15;13.20;99.90
5344;DHT22;2694;48.954;8.928;2024-02-26T14:45:42;13.10;99.90
5344;DHT22;2694;48.954;8.928;2024-02-26T14:48:09;13.10;99.90
5344;DHT22;2694;48.954;8.928;2024-02-26T14:50:36;13.10;99.90
5344;DHT22;2694;48.954;8.928;2024-02-26T14:53:04;13.00;99.90
5344;DHT22;2694;48.954;8.928;2024-02-26T14:55:31;13.00;99.90
5344;DHT22;2694;48.954;8.928;2024-02-26T14:57:59;13.10;99.90
5344;DHT22;2694;48.954;8.928;2024-02-26T15:00:26;13.10;99.90
5344;DHT22;2694;48.954;8.928;2024-02-26T15:02:53;13.20;99.90
5344;DHT22;2694;48.954;8.928;2024-02-26T15:05:20;13.20;99.90
5344;DHT22;2694;48.954;8.928;2024-02-26T15:07:47;13.10;99.90
5344;DHT22;2694;48.954;8.928;2024-02-26T15:10:16;13.10;99.90
5344;DHT22;2694;48.954;8.928;2024-02-26T15:12:42;13.10;99.90
5344;DHT22;2694;48.954;8.928;2024-02-26T15:15:09;13.00;99.90
5344;DHT22;2694;48.954;8.928;2024-02-26T15:17:36;13.00;99.90
5344;DHT22;2694;48.954;8.928;2024-02-26T15:20:03;13.10;99.90
5344;DHT22;2694;48.954;8.928;2024-02-26T15:22:33;13.10;99.90
5344;DHT22;2694;48.954;8.928;2024-02-26T15:24:59;13.10;99.90
5344;DHT22;2694;48.954;8.928;2024-02-26T15:27:28;13.00;99.90
5344;DHT22;2694;48.954;8.928;2024-02-26T15:29:54;13.10;99.90
5344;DHT22;2694;48.954;8.928;2024-02-26T15:32:23;13.10;99.90
5344;DHT22;2694;48.954;8.928;2024-02-26T15:34:52;13.20;99.90
5344;DHT22;2694;48.954;8.928;2024-02-26T15:37:18;13.10;99.90
5344;DHT22;2694;48.954;8.928;2024-02-26T15:39:45;13.10;99.90
5344;DHT22;2694;48.954;8.928;2024-02-26T15:42:12;13.10;99.90
5344;DHT22;2694;48.954;8.928;2024-02-26T15:44:40;13.10;99.90
5344;DHT22;2694;48.954;8.928;2024-02-26T15:47:07;13.10;99.90
5344;DHT22;2694;48.954;8.928;2024-02-26T15:49:34;13.10;99.90
5344;DHT22;2694;48.954;8.928;2024-02-26T15:52:01;13.10;99.90
5344;DHT22;2694;48.954;8.928;2024-02-26T15:54:29;13.20;99.90
5344;DHT22;2694;48.954;8.928;2024-02-26T15:56:56;13.20;99.90
5344;DHT22;2694;48.954;8.928;2024-02-26T15:59:23;13.20;99.90
5344;DHT22;2694;48.954;8.928;2024-02-26T16:01:51;13.20;99.90
5344;DHT22;2694;48.954;8.928;2024-02-26T16:04:18;13.20;99.90
5344;DHT22;2694;48.954;8.928;2024-02-26T16:06:48;13.10;99.90
5344;DHT22;2694;48.954;8.928;2024-02-26T16:09:15;13.10;99.90
5344;DHT22;2694;48.954;8.928;2024-02-26T16:11:42;13.00;99.90
5344;DHT22;2694;48.954;8.928;2024-02-26T16:14:13;13.00;99.90